Coralville, Iowa
Current Conditions -  °F | °C
As of 3:52 PM on Friday 28 Nov 2014 (Local Time) from KIOW Reporting Station
Clear Clear  
Wind Chill: 25°   Ceiling: Unl
Heat Index: 33°   Visibility: 10mi
Dew Point: 27°   Wind: 9mph
Humidity: 78%   Direction: 110°ESE
Pressure: 29.89"   Gusts: NA
Location:  41.68°N, 91.59°W
Report Text: KIOW 282152Z AUTO 11008KT 10SM CLR 01/M03 A2989 RMK AO2 SLP132 T00061028
Loading
Personal Weather Stations






























Interactive Weather Map New forecast layout! Learn more

10-Day Weather Forecast

Advertisements
Track Severe Weather on mobile